sensor_id;sensor_type;location;lat;lon;timestamp;temperature;humidity
67279;DHT22;54193;53.746;10.058;2023-04-03T00:00:26;-1.44;90.43
67279;DHT22;54193;53.746;10.058;2023-04-03T00:03:12;-1.61;90.22
67279;DHT22;54193;53.746;10.058;2023-04-03T00:05:58;-1.78;90.25
67279;DHT22;54193;53.746;10.058;2023-04-03T00:08:43;-1.67;90.58
67279;DHT22;54193;53.746;10.058;2023-04-03T00:11:30;-1.68;90.53
67279;DHT22;54193;53.746;10.058;2023-04-03T00:14:15;-1.85;90.61
67279;DHT22;54193;53.746;10.058;2023-04-03T00:17:01;-1.74;90.75
67279;DHT22;54193;53.746;10.058;2023-04-03T00:19:47;-1.64;90.80
67279;DHT22;54193;53.746;10.058;2023-04-03T00:22:32;-1.69;90.90
67279;DHT22;54193;53.746;10.058;2023-04-03T00:25:18;-1.76;90.97
67279;DHT22;54193;53.746;10.058;2023-04-03T00:28:04;-1.85;91.05
67279;DHT22;54193;53.746;10.058;2023-04-03T00:30:50;-2.07;91.29
67279;DHT22;54193;53.746;10.058;2023-04-03T00:33:36;-2.14;91.33
67279;DHT22;54193;53.746;10.058;2023-04-03T00:36:22;-2.11;91.25
67279;DHT22;54193;53.746;10.058;2023-04-03T00:39:07;-2.07;91.21
67279;DHT22;54193;53.746;10.058;2023-04-03T00:41:53;-2.24;91.53
67279;DHT22;54193;53.746;10.058;2023-04-03T00:47:24;-2.10;91.73
67279;DHT22;54193;53.746;10.058;2023-04-03T00:50:10;-2.11;91.69
67279;DHT22;54193;53.746;10.058;2023-04-03T00:52:56;-2.19;91.85
67279;DHT22;54193;53.746;10.058;2023-04-03T00:55:43;-2.24;91.97
67279;DHT22;54193;53.746;10.058;2023-04-03T00:58:36;-2.38;91.91
67279;DHT22;54193;53.746;10.058;2023-04-03T01:01:25;-2.31;91.78
67279;DHT22;54193;53.746;10.058;2023-04-03T01:04:34;-2.38;91.75
67279;DHT22;54193;53.746;10.058;2023-04-03T01:07:24;-2.51;92.08
67279;DHT22;54193;53.746;10.058;2023-04-03T01:10:14;-2.60;92.34
67279;DHT22;54193;53.746;10.058;2023-04-03T01:13:00;-2.38;92.00
67279;DHT22;54193;53.746;10.058;2023-04-03T01:15:47;-2.54;92.23
67279;DHT22;54193;53.746;10.058;2023-04-03T01:18:34;-2.47;92.24
67279;DHT22;54193;53.746;10.058;2023-04-03T01:21:34;-2.30;92.08
67279;DHT22;54193;53.746;10.058;2023-04-03T01:24:36;-2.26;91.99
67279;DHT22;54193;53.746;10.058;2023-04-03T01:27:24;-2.17;91.93
67279;DHT22;54193;53.746;10.058;2023-04-03T01:30:10;-2.24;91.91
67279;DHT22;54193;53.746;10.058;2023-04-03T01:32:56;-2.16;91.84
67279;DHT22;54193;53.746;10.058;2023-04-03T01:35:42;-2.26;91.89
67279;DHT22;54193;53.746;10.058;2023-04-03T01:38:28;-2.26;91.92
67279;DHT22;54193;53.746;10.058;2023-04-03T01:41:13;-2.29;92.03
67279;DHT22;54193;53.746;10.058;2023-04-03T01:43:59;-2.06;92.12
67279;DHT22;54193;53.746;10.058;2023-04-03T01:46:45;-2.07;91.97
67279;DHT22;54193;53.746;10.058;2023-04-03T01:49:30;-1.99;92.11
67279;DHT22;54193;53.746;10.058;2023-04-03T01:52:16;-2.02;92.07
67279;DHT22;54193;53.746;10.058;2023-04-03T01:55:02;-2.06;92.09
67279;DHT22;54193;53.746;10.058;2023-04-03T01:57:48;-2.00;92.09
67279;DHT22;54193;53.746;10.058;2023-04-03T02:00:33;-2.07;92.11
67279;DHT22;54193;53.746;10.058;2023-04-03T02:03:19;-2.13;92.11
67279;DHT22;54193;53.746;10.058;2023-04-03T02:06:05;-2.29;92.23
67279;DHT22;54193;53.746;10.058;2023-04-03T02:08:51;-2.31;92.22
67279;DHT22;54193;53.746;10.058;2023-04-03T02:11:36;-2.31;92.25
67279;DHT22;54193;53.746;10.058;2023-04-03T02:14:22;-2.34;92.31
67279;DHT22;54193;53.746;10.058;2023-04-03T02:17:08;-2.40;92.32
67279;DHT22;54193;53.746;10.058;2023-04-03T02:19:54;-2.50;92.39
67279;DHT22;54193;53.746;10.058;2023-04-03T02:22:40;-2.47;92.34
67279;DHT22;54193;53.746;10.058;2023-04-03T02:25:26;-2.54;92.39
67279;DHT22;54193;53.746;10.058;2023-04-03T02:28:11;-2.54;92.40
67279;DHT22;54193;53.746;10.058;2023-04-03T02:30:57;-2.62;92.50
67279;DHT22;54193;53.746;10.058;2023-04-03T02:33:43;-2.54;92.68
67279;DHT22;54193;53.746;10.058;2023-04-03T02:36:28;-2.45;92.58
67279;DHT22;54193;53.746;10.058;2023-04-03T02:39:14;-2.48;92.61
67279;DHT22;54193;53.746;10.058;2023-04-03T02:42:00;-2.45;92.59
67279;DHT22;54193;53.746;10.058;2023-04-03T02:44:46;-2.57;92.69
67279;DHT22;54193;53.746;10.058;2023-04-03T02:47:31;-2.68;92.71
67279;DHT22;54193;53.746;10.058;2023-04-03T02:50:17;-2.60;92.79
67279;DHT22;54193;53.746;10.058;2023-04-03T02:53:03;-2.58;92.85
67279;DHT22;54193;53.746;10.058;2023-04-03T02:55:49;-2.69;92.88
67279;DHT22;54193;53.746;10.058;2023-04-03T02:58:34;-2.65;92.77
67279;DHT22;54193;53.746;10.058;2023-04-03T03:01:20;-2.65;92.70
67279;DHT22;54193;53.746;10.058;2023-04-03T03:04:06;-2.71;92.70
67279;DHT22;54193;53.746;10.058;2023-04-03T03:06:52;-2.73;92.68
67279;DHT22;54193;53.746;10.058;2023-04-03T03:09:37;-2.81;92.77
67279;DHT22;54193;53.746;10.058;2023-04-03T03:12:23;-2.72;92.75
67279;DHT22;54193;53.746;10.058;2023-04-03T03:15:10;-2.79;92.67
67279;DHT22;54193;53.746;10.058;2023-04-03T03:17:56;-2.76;92.74
67279;DHT22;54193;53.746;10.058;2023-04-03T03:20:41;-2.72;92.71
67279;DHT22;54193;53.746;10.058;2023-04-03T03:23:28;-2.71;92.77
67279;DHT22;54193;53.746;10.058;2023-04-03T03:26:14;-2.68;92.77
67279;DHT22;54193;53.746;10.058;2023-04-03T03:28:59;-2.71;92.77
67279;DHT22;54193;53.746;10.058;2023-04-03T03:31:45;-2.85;92.82
67279;DHT22;54193;53.746;10.058;2023-04-03T03:34:31;-2.75;92.78
67279;DHT22;54193;53.746;10.058;2023-04-03T03:37:17;-2.93;92.83
67279;DHT22;54193;53.746;10.058;2023-04-03T03:40:02;-3.01;92.90
67279;DHT22;54193;53.746;10.058;2023-04-03T03:42:48;-3.09;93.15
67279;DHT22;54193;53.746;10.058;2023-04-03T03:45:34;-3.17;93.42
67279;DHT22;54193;53.746;10.058;2023-04-03T03:48:22;-3.01;93.15
67279;DHT22;54193;53.746;10.058;2023-04-03T03:51:08;-3.13;93.15
67279;DHT22;54193;53.746;10.058;2023-04-03T03:53:53;-3.23;93.15
67279;DHT22;54193;53.746;10.058;2023-04-03T03:56:39;-3.26;93.36
67279;DHT22;54193;53.746;10.058;2023-04-03T03:59:25;-3.23;93.27
67279;DHT22;54193;53.746;10.058;2023-04-03T04:02:11;-3.14;93.09
67279;DHT22;54193;53.746;10.058;2023-04-03T04:04:57;-3.14;93.04
67279;DHT22;54193;53.746;10.058;2023-04-03T04:07:42;-3.26;93.09
67279;DHT22;54193;53.746;10.058;2023-04-03T04:10:28;-3.37;93.37
67279;DHT22;54193;53.746;10.058;2023-04-03T04:13:14;-3.33;93.38
67279;DHT22;54193;53.746;10.058;2023-04-03T04:15:59;-3.36;93.41
67279;DHT22;54193;53.746;10.058;2023-04-03T04:18:45;-3.44;93.67
67279;DHT22;54193;53.746;10.058;2023-04-03T04:21:31;-3.41;93.71
67279;DHT22;54193;53.746;10.058;2023-04-03T04:24:16;-3.37;93.91
67279;DHT22;54193;53.746;10.058;2023-04-03T04:27:02;-3.40;94.23
67279;DHT22;54193;53.746;10.058;2023-04-03T04:29:48;-3.38;94.04
67279;DHT22;54193;53.746;10.058;2023-04-03T04:32:33;-3.13;94.32
67279;DHT22;54193;53.746;10.058;2023-04-03T04:35:19;-3.09;94.62
67279;DHT22;54193;53.746;10.058;2023-04-03T04:38:05;-2.79;94.83
67279;DHT22;54193;53.746;10.058;2023-04-03T04:40:51;-2.97;94.56
67279;DHT22;54193;53.746;10.058;2023-04-03T04:43:37;-3.03;94.16
67279;DHT22;54193;53.746;10.058;2023-04-03T04:46:23;-3.04;93.87
67279;DHT22;54193;53.746;10.058;2023-04-03T04:49:08;-3.11;93.71
67279;DHT22;54193;53.746;10.058;2023-04-03T04:51:54;-3.10;93.50
67279;DHT22;54193;53.746;10.058;2023-04-03T04:54:40;-3.11;93.34
67279;DHT22;54193;53.746;10.058;2023-04-03T04:57:25;-3.10;93.30
67279;DHT22;54193;53.746;10.058;2023-04-03T05:00:12;-3.17;93.19
67279;DHT22;54193;53.746;10.058;2023-04-03T05:02:58;-3.21;92.97
67279;DHT22;54193;53.746;10.058;2023-04-03T05:05:44;-3.26;92.84
67279;DHT22;54193;53.746;10.058;2023-04-03T05:08:29;-3.26;92.72
67279;DHT22;54193;53.746;10.058;2023-04-03T05:11:15;-3.27;92.41
67279;DHT22;54193;53.746;10.058;2023-04-03T05:14:00;-3.16;92.13
67279;DHT22;54193;53.746;10.058;2023-04-03T05:16:46;-3.11;91.99
67279;DHT22;54193;53.746;10.058;2023-04-03T05:19:32;-3.10;91.83
67279;DHT22;54193;53.746;10.058;2023-04-03T05:22:18;-3.10;91.95
67279;DHT22;54193;53.746;10.058;2023-04-03T05:25:04;-3.03;91.82
67279;DHT22;54193;53.746;10.058;2023-04-03T05:27:50;-3.01;91.75
67279;DHT22;54193;53.746;10.058;2023-04-03T05:30:36;-2.97;91.82
67279;DHT22;54193;53.746;10.058;2023-04-03T05:33:22;-2.86;91.90
67279;DHT22;54193;53.746;10.058;2023-04-03T05:36:08;-2.78;91.93
67279;DHT22;54193;53.746;10.058;2023-04-03T05:38:54;-2.58;91.85
67279;DHT22;54193;53.746;10.058;2023-04-03T05:41:41;-2.57;92.16
67279;DHT22;54193;53.746;10.058;2023-04-03T05:44:27;-2.34;92.24
67279;DHT22;54193;53.746;10.058;2023-04-03T05:47:13;-2.22;92.17
67279;DHT22;54193;53.746;10.058;2023-04-03T05:49:58;-2.14;92.32
67279;DHT22;54193;53.746;10.058;2023-04-03T05:52:45;-1.85;92.35
67279;DHT22;54193;53.746;10.058;2023-04-03T05:55:32;-1.81;92.68
67279;DHT22;54193;53.746;10.058;2023-04-03T05:58:18;-1.75;92.64
67279;DHT22;54193;53.746;10.058;2023-04-03T06:01:04;-1.62;92.72
67279;DHT22;54193;53.746;10.058;2023-04-03T06:03:50;-1.36;92.60
67279;DHT22;54193;53.746;10.058;2023-04-03T06:06:53;-1.17;92.62
67279;DHT22;54193;53.746;10.058;2023-04-03T06:09:39;-1.00;92.43
67279;DHT22;54193;53.746;10.058;2023-04-03T06:12:25;-1.00;92.57
67279;DHT22;54193;53.746;10.058;2023-04-03T06:15:11;-0.97;92.65
67279;DHT22;54193;53.746;10.058;2023-04-03T06:17:57;-0.82;92.64
67279;DHT22;54193;53.746;10.058;2023-04-03T06:20:42;-0.66;92.14
67279;DHT22;54193;53.746;10.058;2023-04-03T06:23:28;-0.50;92.43
67279;DHT22;54193;53.746;10.058;2023-04-03T06:26:14;-0.34;92.45
67279;DHT22;54193;53.746;10.058;2023-04-03T06:29:00;-0.27;91.92
67279;DHT22;54193;53.746;10.058;2023-04-03T06:31:46;-0.14;91.29
67279;DHT22;54193;53.746;10.058;2023-04-03T06:34:32;0.05;92.20
67279;DHT22;54193;53.746;10.058;2023-04-03T06:37:20;0.21;92.24
67279;DHT22;54193;53.746;10.058;2023-04-03T06:40:15;0.29;91.30
67279;DHT22;54193;53.746;10.058;2023-04-03T06:43:03;0.48;92.25
67279;DHT22;54193;53.746;10.058;2023-04-03T06:45:48;0.68;91.23
67279;DHT22;54193;53.746;10.058;2023-04-03T06:48:34;0.76;89.88
67279;DHT22;54193;53.746;10.058;2023-04-03T06:51:27;0.86;90.93
67279;DHT22;54193;53.746;10.058;2023-04-03T06:54:13;1.04;90.53
67279;DHT22;54193;53.746;10.058;2023-04-03T06:57:00;1.18;89.27
67279;DHT22;54193;53.746;10.058;2023-04-03T06:59:46;1.43;88.56
67279;DHT22;54193;53.746;10.058;2023-04-03T07:02:31;1.56;87.50
67279;DHT22;54193;53.746;10.058;2023-04-03T07:05:17;1.86;87.36
67279;DHT22;54193;53.746;10.058;2023-04-03T07:08:03;2.08;86.04
67279;DHT22;54193;53.746;10.058;2023-04-03T07:10:49;2.21;85.68
67279;DHT22;54193;53.746;10.058;2023-04-03T07:13:35;2.29;85.05
67279;DHT22;54193;53.746;10.058;2023-04-03T07:16:21;2.39;85.08
67279;DHT22;54193;53.746;10.058;2023-04-03T07:19:07;2.63;84.29
67279;DHT22;54193;53.746;10.058;2023-04-03T07:21:54;2.92;82.58
67279;DHT22;54193;53.746;10.058;2023-04-03T07:24:40;2.89;82.86
67279;DHT22;54193;53.746;10.058;2023-04-03T07:27:25;3.13;81.59
67279;DHT22;54193;53.746;10.058;2023-04-03T07:30:11;3.56;80.14
67279;DHT22;54193;53.746;10.058;2023-04-03T07:32:59;3.98;78.35
67279;DHT22;54193;53.746;10.058;2023-04-03T07:35:46;3.96;78.57
67279;DHT22;54193;53.746;10.058;2023-04-03T07:38:31;4.21;76.70
67279;DHT22;54193;53.746;10.058;2023-04-03T07:41:19;4.48;75.98
67279;DHT22;54193;53.746;10.058;2023-04-03T07:44:06;4.53;76.09
67279;DHT22;54193;53.746;10.058;2023-04-03T07:46:55;4.27;77.74
67279;DHT22;54193;53.746;10.058;2023-04-03T07:49:41;4.76;77.07
67279;DHT22;54193;53.746;10.058;2023-04-03T07:52:27;5.37;74.67
67279;DHT22;54193;53.746;10.058;2023-04-03T07:55:12;5.86;73.65
67279;DHT22;54193;53.746;10.058;2023-04-03T07:57:58;6.18;71.05
67279;DHT22;54193;53.746;10.058;2023-04-03T08:00:44;5.63;72.73
67279;DHT22;54193;53.746;10.058;2023-04-03T08:03:30;6.24;67.63
67279;DHT22;54193;53.746;10.058;2023-04-03T08:06:16;6.07;66.85
67279;DHT22;54193;53.746;10.058;2023-04-03T08:09:03;6.07;64.84
67279;DHT22;54193;53.746;10.058;2023-04-03T08:11:49;5.69;66.30
67279;DHT22;54193;53.746;10.058;2023-04-03T08:14:38;6.40;66.20
67279;DHT22;54193;53.746;10.058;2023-04-03T08:17:24;6.69;64.02
67279;DHT22;54193;53.746;10.058;2023-04-03T08:20:10;7.04;63.64
67279;DHT22;54193;53.746;10.058;2023-04-03T08:22:56;7.01;61.05
67279;DHT22;54193;53.746;10.058;2023-04-03T08:25:42;7.83;60.90
67279;DHT22;54193;53.746;10.058;2023-04-03T08:28:27;8.57;57.89
67279;DHT22;54193;53.746;10.058;2023-04-03T08:31:16;7.06;60.09
67279;DHT22;54193;53.746;10.058;2023-04-03T08:34:03;6.61;65.35
67279;DHT22;54193;53.746;10.058;2023-04-03T08:36:49;7.40;61.85
67279;DHT22;54193;53.746;10.058;2023-04-03T08:39:35;7.97;57.53
67279;DHT22;54193;53.746;10.058;2023-04-03T08:42:54;8.28;56.32
67279;DHT22;54193;53.746;10.058;2023-04-03T08:45:48;8.19;55.12
67279;DHT22;54193;53.746;10.058;2023-04-03T08:48:41;7.81;56.75
67279;DHT22;54193;53.746;10.058;2023-04-03T08:51:28;7.69;59.90
67279;DHT22;54193;53.746;10.058;2023-04-03T08:54:23;7.40;57.84
67279;DHT22;54193;53.746;10.058;2023-04-03T08:57:11;7.04;57.62
67279;DHT22;54193;53.746;10.058;2023-04-03T09:00:00;8.45;52.63
67279;DHT22;54193;53.746;10.058;2023-04-03T09:02:50;9.09;49.14
67279;DHT22;54193;53.746;10.058;2023-04-03T09:12:00;9.35;47.90
67279;DHT22;54193;53.746;10.058;2023-04-03T09:18:04;9.04;47.97
67279;DHT22;54193;53.746;10.058;2023-04-03T09:21:04;11.09;46.55
67279;DHT22;54193;53.746;10.058;2023-04-03T09:23:56;10.69;41.75
67279;DHT22;54193;53.746;10.058;2023-04-03T09:27:01;9.79;47.94
67279;DHT22;54193;53.746;10.058;2023-04-03T09:29:52;11.05;45.17
67279;DHT22;54193;53.746;10.058;2023-04-03T09:32:39;11.65;41.84
67279;DHT22;54193;53.746;10.058;2023-04-03T09:35:29;10.95;43.47
67279;DHT22;54193;53.746;10.058;2023-04-03T09:38:19;10.34;45.58
67279;DHT22;54193;53.746;10.058;2023-04-03T09:41:16;11.02;43.82
67279;DHT22;54193;53.746;10.058;2023-04-03T09:44:02;9.92;45.54
67279;DHT22;54193;53.746;10.058;2023-04-03T09:46:48;8.26;51.38
67279;DHT22;54193;53.746;10.058;2023-04-03T09:49:33;7.48;54.21
67279;DHT22;54193;53.746;10.058;2023-04-03T09:52:24;9.89;45.89
67279;DHT22;54193;53.746;10.058;2023-04-03T09:55:26;8.66;48.85
67279;DHT22;54193;53.746;10.058;2023-04-03T09:58:42;8.65;50.92
67279;DHT22;54193;53.746;10.058;2023-04-03T10:01:39;8.17;54.14
67279;DHT22;54193;53.746;10.058;2023-04-03T10:04:37;7.99;53.15
67279;DHT22;54193;53.746;10.058;2023-04-03T10:07:34;8.09;53.30
67279;DHT22;54193;53.746;10.058;2023-04-03T10:10:22;6.88;53.95
67279;DHT22;54193;53.746;10.058;2023-04-03T10:16:03;6.41;56.43
67279;DHT22;54193;53.746;10.058;2023-04-03T10:18:55;6.46;54.07
67279;DHT22;54193;53.746;10.058;2023-04-03T10:21:50;6.68;54.05
67279;DHT22;54193;53.746;10.058;2023-04-03T10:25:15;6.32;54.61
67279;DHT22;54193;53.746;10.058;2023-04-03T10:28:21;6.61;52.89
67279;DHT22;54193;53.746;10.058;2023-04-03T10:31:19;6.44;51.10
67279;DHT22;54193;53.746;10.058;2023-04-03T10:34:18;6.68;50.46
67279;DHT22;54193;53.746;10.058;2023-04-03T10:40:05;6.92;48.75
67279;DHT22;54193;53.746;10.058;2023-04-03T10:43:23;6.86;49.88
67279;DHT22;54193;53.746;10.058;2023-04-03T10:52:47;6.40;52.47
67279;DHT22;54193;53.746;10.058;2023-04-03T10:55:36;6.35;52.16
67279;DHT22;54193;53.746;10.058;2023-04-03T10:58:31;6.41;53.71
67279;DHT22;54193;53.746;10.058;2023-04-03T11:01:24;6.31;54.56
67279;DHT22;54193;53.746;10.058;2023-04-03T11:04:14;6.55;54.87
67279;DHT22;54193;53.746;10.058;2023-04-03T11:07:08;6.67;53.74
67279;DHT22;54193;53.746;10.058;2023-04-03T11:10:33;6.88;53.00
67279;DHT22;54193;53.746;10.058;2023-04-03T11:13:26;7.14;53.56
67279;DHT22;54193;53.746;10.058;2023-04-03T11:16:22;7.28;49.50
67279;DHT22;54193;53.746;10.058;2023-04-03T11:19:17;7.59;47.45
67279;DHT22;54193;53.746;10.058;2023-04-03T11:22:36;7.73;51.17
67279;DHT22;54193;53.746;10.058;2023-04-03T11:25:25;7.83;47.73
67279;DHT22;54193;53.746;10.058;2023-04-03T11:28:14;7.50;49.83
67279;DHT22;54193;53.746;10.058;2023-04-03T11:37:00;6.71;53.80
67279;DHT22;54193;53.746;10.058;2023-04-03T11:39:58;6.71;53.01
67279;DHT22;54193;53.746;10.058;2023-04-03T11:43:07;6.96;55.42
67279;DHT22;54193;53.746;10.058;2023-04-03T11:48:45;7.06;53.17
67279;DHT22;54193;53.746;10.058;2023-04-03T11:51:40;6.75;52.80
67279;DHT22;54193;53.746;10.058;2023-04-03T11:54:55;6.93;54.13
67279;DHT22;54193;53.746;10.058;2023-04-03T11:57:46;7.13;51.39
67279;DHT22;54193;53.746;10.058;2023-04-03T12:12:37;8.14;48.19
67279;DHT22;54193;53.746;10.058;2023-04-03T12:15:47;7.76;45.37
67279;DHT22;54193;53.746;10.058;2023-04-03T12:18:43;7.85;47.05
67279;DHT22;54193;53.746;10.058;2023-04-03T12:27:40;8.06;48.15
67279;DHT22;54193;53.746;10.058;2023-04-03T12:30:29;8.45;46.81
67279;DHT22;54193;53.746;10.058;2023-04-03T12:33:39;8.37;47.77
67279;DHT22;54193;53.746;10.058;2023-04-03T12:39:54;7.26;52.17
67279;DHT22;54193;53.746;10.058;2023-04-03T12:45:43;6.67;50.00
67279;DHT22;54193;53.746;10.058;2023-04-03T12:48:36;6.95;50.45
67279;DHT22;54193;53.746;10.058;2023-04-03T12:51:34;7.35;52.07
67279;DHT22;54193;53.746;10.058;2023-04-03T12:57:25;7.73;49.68
67279;DHT22;54193;53.746;10.058;2023-04-03T13:00:38;7.78;49.39
67279;DHT22;54193;53.746;10.058;2023-04-03T13:03:26;8.02;50.08
67279;DHT22;54193;53.746;10.058;2023-04-03T13:06:23;7.66;47.49
67279;DHT22;54193;53.746;10.058;2023-04-03T13:09:27;7.43;49.65
67279;DHT22;54193;53.746;10.058;2023-04-03T13:12:15;7.23;48.06
67279;DHT22;54193;53.746;10.058;2023-04-03T13:15:16;7.18;47.53
67279;DHT22;54193;53.746;10.058;2023-04-03T13:18:03;7.51;48.02
67279;DHT22;54193;53.746;10.058;2023-04-03T13:20:49;7.86;50.83
67279;DHT22;54193;53.746;10.058;2023-04-03T13:23:38;7.73;48.22
67279;DHT22;54193;53.746;10.058;2023-04-03T13:26:29;7.97;47.72
67279;DHT22;54193;53.746;10.058;2023-04-03T13:29:25;8.14;48.21
67279;DHT22;54193;53.746;10.058;2023-04-03T13:32:38;8.33;47.87
67279;DHT22;54193;53.746;10.058;2023-04-03T13:35:37;7.93;48.55
67279;DHT22;54193;53.746;10.058;2023-04-03T13:38:26;7.96;51.64
67279;DHT22;54193;53.746;10.058;2023-04-03T13:47:24;7.31;52.98
67279;DHT22;54193;53.746;10.058;2023-04-03T13:50:22;7.00;53.03
67279;DHT22;54193;53.746;10.058;2023-04-03T13:53:14;7.03;53.66
67279;DHT22;54193;53.746;10.058;2023-04-03T14:04:52;7.92;52.96
67279;DHT22;54193;53.746;10.058;2023-04-03T14:07:41;7.78;52.17
67279;DHT22;54193;53.746;10.058;2023-04-03T14:10:27;7.51;53.14
67279;DHT22;54193;53.746;10.058;2023-04-03T14:13:14;7.17;54.25
67279;DHT22;54193;53.746;10.058;2023-04-03T14:16:00;7.17;54.59
67279;DHT22;54193;53.746;10.058;2023-04-03T14:18:47;7.10;54.51
67279;DHT22;54193;53.746;10.058;2023-04-03T14:21:33;7.20;53.82
67279;DHT22;54193;53.746;10.058;2023-04-03T14:24:19;7.16;53.78
67279;DHT22;54193;53.746;10.058;2023-04-03T14:27:15;7.16;52.66
67279;DHT22;54193;53.746;10.058;2023-04-03T14:30:02;7.52;54.76
67279;DHT22;54193;53.746;10.058;2023-04-03T14:32:50;7.64;54.22
67279;DHT22;54193;53.746;10.058;2023-04-03T14:35:36;7.48;54.45
67279;DHT22;54193;53.746;10.058;2023-04-03T14:38:26;7.35;55.17
67279;DHT22;54193;53.746;10.058;2023-04-03T14:41:15;7.13;56.66
67279;DHT22;54193;53.746;10.058;2023-04-03T14:44:01;7.08;58.52
67279;DHT22;54193;53.746;10.058;2023-04-03T14:46:46;6.86;57.00
67279;DHT22;54193;53.746;10.058;2023-04-03T14:49:32;6.61;58.19
67279;DHT22;54193;53.746;10.058;2023-04-03T14:52:26;6.71;59.10
67279;DHT22;54193;53.746;10.058;2023-04-03T14:55:15;6.93;59.06
67279;DHT22;54193;53.746;10.058;2023-04-03T14:58:01;6.90;56.98
67279;DHT22;54193;53.746;10.058;2023-04-03T15:00:47;6.89;57.35
67279;DHT22;54193;53.746;10.058;2023-04-03T15:03:33;6.85;55.38
67279;DHT22;54193;53.746;10.058;2023-04-03T15:06:47;7.00;57.52
67279;DHT22;54193;53.746;10.058;2023-04-03T15:09:35;7.17;55.61
67279;DHT22;54193;53.746;10.058;2023-04-03T15:12:22;7.50;55.34
67279;DHT22;54193;53.746;10.058;2023-04-03T15:15:08;7.41;54.52
67279;DHT22;54193;53.746;10.058;2023-04-03T15:17:55;7.45;54.31
67279;DHT22;54193;53.746;10.058;2023-04-03T15:20:43;7.23;54.22
67279;DHT22;54193;53.746;10.058;2023-04-03T15:23:29;7.07;54.42
67279;DHT22;54193;53.746;10.058;2023-04-03T15:26:15;6.88;54.99
67279;DHT22;54193;53.746;10.058;2023-04-03T15:29:01;6.48;55.90
67279;DHT22;54193;53.746;10.058;2023-04-03T15:31:47;6.31;57.58
67279;DHT22;54193;53.746;10.058;2023-04-03T15:34:36;6.42;57.87
67279;DHT22;54193;53.746;10.058;2023-04-03T15:37:21;6.65;57.94
67279;DHT22;54193;53.746;10.058;2023-04-03T15:40:08;6.83;54.88
67279;DHT22;54193;53.746;10.058;2023-04-03T15:42:53;6.99;54.46
67279;DHT22;54193;53.746;10.058;2023-04-03T15:45:39;7.16;54.06
67279;DHT22;54193;53.746;10.058;2023-04-03T15:48:26;7.24;55.41
67279;DHT22;54193;53.746;10.058;2023-04-03T15:51:12;6.99;56.93
67279;DHT22;54193;53.746;10.058;2023-04-03T15:53:58;6.76;57.07
67279;DHT22;54193;53.746;10.058;2023-04-03T15:56:44;6.53;59.20
67279;DHT22;54193;53.746;10.058;2023-04-03T15:59:29;6.20;60.66
67279;DHT22;54193;53.746;10.058;2023-04-03T16:02:17;5.99;62.54
67279;DHT22;54193;53.746;10.058;2023-04-03T16:05:03;5.83;62.81
67279;DHT22;54193;53.746;10.058;2023-04-03T16:07:49;5.67;64.05
67279;DHT22;54193;53.746;10.058;2023-04-03T16:10:36;5.75;64.31
67279;DHT22;54193;53.746;10.058;2023-04-03T16:13:21;5.75;63.21
67279;DHT22;54193;53.746;10.058;2023-04-03T16:16:07;5.62;64.11
67279;DHT22;54193;53.746;10.058;2023-04-03T16:18:54;5.72;64.56
67279;DHT22;54193;53.746;10.058;2023-04-03T16:21:40;5.70;64.51
67279;DHT22;54193;53.746;10.058;2023-04-03T16:24:26;5.69;63.52
67279;DHT22;54193;53.746;10.058;2023-04-03T16:27:12;5.63;64.04
67279;DHT22;54193;53.746;10.058;2023-04-03T16:29:58;5.59;64.59
67279;DHT22;54193;53.746;10.058;2023-04-03T16:32:44;5.52;64.70
67279;DHT22;54193;53.746;10.058;2023-04-03T16:35:30;5.47;65.21
67279;DHT22;54193;53.746;10.058;2023-04-03T16:38:16;5.48;64.64
67279;DHT22;54193;53.746;10.058;2023-04-03T16:41:04;5.35;64.79
67279;DHT22;54193;53.746;10.058;2023-04-03T16:43:49;5.23;65.49
67279;DHT22;54193;53.746;10.058;2023-04-03T16:46:35;5.16;65.75
67279;DHT22;54193;53.746;10.058;2023-04-03T16:49:21;5.13;65.95
67279;DHT22;54193;53.746;10.058;2023-04-03T16:52:07;5.20;65.03
67279;DHT22;54193;53.746;10.058;2023-04-03T16:54:52;5.31;65.61
67279;DHT22;54193;53.746;10.058;2023-04-03T16:57:40;5.26;66.20
67279;DHT22;54193;53.746;10.058;2023-04-03T17:00:29;5.16;65.25
67279;DHT22;54193;53.746;10.058;2023-04-03T17:03:15;5.06;66.56
67279;DHT22;54193;53.746;10.058;2023-04-03T17:06:01;4.90;66.92
67279;DHT22;54193;53.746;10.058;2023-04-03T17:08:48;4.75;66.62
67279;DHT22;54193;53.746;10.058;2023-04-03T17:11:33;4.71;66.85
67279;DHT22;54193;53.746;10.058;2023-04-03T17:14:19;4.63;67.35
67279;DHT22;54193;53.746;10.058;2023-04-03T17:17:05;4.53;67.39
67279;DHT22;54193;53.746;10.058;2023-04-03T17:19:51;4.46;66.54
67279;DHT22;54193;53.746;10.058;2023-04-03T17:22:39;4.35;67.44
67279;DHT22;54193;53.746;10.058;2023-04-03T17:25:25;4.37;67.71
67279;DHT22;54193;53.746;10.058;2023-04-03T17:28:10;4.21;69.08
67279;DHT22;54193;53.746;10.058;2023-04-03T17:30:57;4.13;68.26
67279;DHT22;54193;53.746;10.058;2023-04-03T17:33:43;4.07;68.44
67279;DHT22;54193;53.746;10.058;2023-04-03T17:36:30;3.96;69.12
67279;DHT22;54193;53.746;10.058;2023-04-03T17:39:16;3.90;69.68
67279;DHT22;54193;53.746;10.058;2023-04-03T17:42:02;3.82;70.01
67279;DHT22;54193;53.746;10.058;2023-04-03T17:44:48;3.73;70.58
67279;DHT22;54193;53.746;10.058;2023-04-03T17:47:33;3.56;70.85
67279;DHT22;54193;53.746;10.058;2023-04-03T17:50:19;3.45;71.55
67279;DHT22;54193;53.746;10.058;2023-04-03T17:53:05;3.42;71.74
67279;DHT22;54193;53.746;10.058;2023-04-03T17:55:50;3.35;71.86
67279;DHT22;54193;53.746;10.058;2023-04-03T17:58:36;3.24;71.93
67279;DHT22;54193;53.746;10.058;2023-04-03T18:01:27;3.10;72.62
67279;DHT22;54193;53.746;10.058;2023-04-03T18:04:14;3.00;73.04
67279;DHT22;54193;53.746;10.058;2023-04-03T18:07:00;2.93;73.66
67279;DHT22;54193;53.746;10.058;2023-04-03T18:09:48;2.82;74.08
67279;DHT22;54193;53.746;10.058;2023-04-03T18:12:35;2.82;74.39
67279;DHT22;54193;53.746;10.058;2023-04-03T18:15:25;2.79;74.53
67279;DHT22;54193;53.746;10.058;2023-04-03T18:18:11;2.73;74.65
67279;DHT22;54193;53.746;10.058;2023-04-03T18:20:57;2.66;74.61
67279;DHT22;54193;53.746;10.058;2023-04-03T18:23:46;2.55;75.07
67279;DHT22;54193;53.746;10.058;2023-04-03T18:26:33;2.52;75.47
67279;DHT22;54193;53.746;10.058;2023-04-03T18:29:19;2.49;75.27
67279;DHT22;54193;53.746;10.058;2023-04-03T18:32:06;2.39;75.83
67279;DHT22;54193;53.746;10.058;2023-04-03T18:34:53;2.41;75.74
67279;DHT22;54193;53.746;10.058;2023-04-03T18:37:39;2.46;75.52
67279;DHT22;54193;53.746;10.058;2023-04-03T18:40:24;2.35;75.34
67279;DHT22;54193;53.746;10.058;2023-04-03T18:43:11;2.28;76.04
67279;DHT22;54193;53.746;10.058;2023-04-03T18:45:56;2.18;76.01
67279;DHT22;54193;53.746;10.058;2023-04-03T18:48:42;2.00;76.60
67279;DHT22;54193;53.746;10.058;2023-04-03T18:51:30;1.99;76.66
67279;DHT22;54193;53.746;10.058;2023-04-03T18:54:16;1.90;76.58